Time,TemperatureF,DewpointF,PressureIn,WindDirection,WindDirectionDegrees,WindSpeedMPH,WindSpeedGustMPH,Humidity,HourlyPrecipIn,Conditions,Clouds,dailyrainin,SoftwareType,DateUTC
2013-11-04 00:03:00,-999.0,-99.9,26.65,North,-999,-999.0,-999.0,-999,0.00,,,0.00,weatherlink.com 1.10,2013-11-04 05:03:00,
2013-11-04 00:18:00,-999.0,-99.9,26.66,North,-999,-999.0,-999.0,-999,0.00,,,0.00,weatherlink.com 1.10,2013-11-04 05:18:00,
2013-11-04 00:33:00,-999.0,-99.9,26.65,North,-999,-999.0,-999.0,-999,0.00,,,0.00,weatherlink.com 1.10,2013-11-04 05:33:00,
2013-11-04 00:48:00,-999.0,-99.9,26.65,North,-999,-999.0,-999.0,-999,0.00,,,0.00,weatherlink.com 1.10,2013-11-04 05:48:00,
2013-11-04 01:03:00,-999.0,-99.9,26.67,North,-999,-999.0,-999.0,-999,0.00,,,0.00,weatherlink.com 1.10,2013-11-04 06:03:00,
2013-11-04 01:18:00,-999.0,-99.9,26.67,North,-999,-999.0,-999.0,-999,0.00,,,0.00,weatherlink.com 1.10,2013-11-04 06:18:00,
2013-11-04 01:33:00,-999.0,-99.9,26.67,North,-999,-999.0,-999.0,-999,0.00,,,0.00,weatherlink.com 1.10,2013-11-04 06:33:00,
2013-11-04 01:48:00,-999.0,-99.9,26.68,North,-999,-999.0,-999.0,-999,0.00,,,0.00,weatherlink.com 1.10,2013-11-04 06:48:00,
2013-11-04 02:04:00,-999.0,-99.9,26.68,North,-999,-999.0,-999.0,-999,0.00,,,0.00,weatherlink.com 1.10,2013-11-04 07:04:00,
2013-11-04 02:19:00,-999.0,-99.9,26.68,North,-999,-999.0,-999.0,-999,0.00,,,0.00,weatherlink.com 1.10,2013-11-04 07:19:00,
2013-11-04 02:34:00,-999.0,-99.9,26.68,North,-999,-999.0,-999.0,-999,0.00,,,0.00,weatherlink.com 1.10,2013-11-04 07:34:00,
2013-11-04 02:49:00,-999.0,-99.9,26.68,North,-999,-999.0,-999.0,-999,0.00,,,0.00,weatherlink.com 1.10,2013-11-04 07:49:00,
2013-11-04 03:04:00,-999.0,-99.9,26.68,North,-999,-999.0,-999.0,-999,0.00,,,0.00,weatherlink.com 1.10,2013-11-04 08:04:00,
2013-11-04 03:19:00,-999.0,-99.9,26.67,North,-999,-999.0,-999.0,-999,0.00,,,0.00,weatherlink.com 1.10,2013-11-04 08:19:00,
2013-11-04 03:34:00,-999.0,-99.9,26.67,North,-999,-999.0,-999.0,-999,0.00,,,0.00,weatherlink.com 1.10,2013-11-04 08:34:00,
2013-11-04 03:49:00,-999.0,-99.9,26.67,North,-999,-999.0,-999.0,-999,0.00,,,0.00,weatherlink.com 1.10,2013-11-04 08:49:00,
2013-11-04 04:04:00,-999.0,-99.9,26.67,North,-999,-999.0,-999.0,-999,0.00,,,0.00,weatherlink.com 1.10,2013-11-04 09:04:00,
2013-11-04 04:19:00,-999.0,-99.9,26.68,North,-999,-999.0,-999.0,-999,0.00,,,0.00,weatherlink.com 1.10,2013-11-04 09:19:00,
2013-11-04 04:34:00,-999.0,-99.9,26.68,North,-999,-999.0,-999.0,-999,0.00,,,0.00,weatherlink.com 1.10,2013-11-04 09:34:00,
2013-11-04 04:49:00,-999.0,-99.9,26.69,North,-999,-999.0,-999.0,-999,0.00,,,0.00,weatherlink.com 1.10,2013-11-04 09:49:00,
2013-11-04 05:04:00,-999.0,-99.9,26.69,North,-999,-999.0,-999.0,-999,0.00,,,0.00,weatherlink.com 1.10,2013-11-04 10:04:00,
2013-11-04 05:20:00,-999.0,-99.9,26.70,North,-999,-999.0,-999.0,-999,0.00,,,0.00,weatherlink.com 1.10,2013-11-04 10:20:00,
2013-11-04 05:35:00,-999.0,-99.9,26.70,North,-999,-999.0,-999.0,-999,0.00,,,0.00,weatherlink.com 1.10,2013-11-04 10:35:00,
2013-11-04 05:50:00,-999.0,-99.9,26.71,North,-999,-999.0,-999.0,-999,0.00,,,0.00,weatherlink.com 1.10,2013-11-04 10:50:00,
2013-11-04 06:05:00,-999.0,-99.9,26.71,North,-999,-999.0,-999.0,-999,0.00,,,0.00,weatherlink.com 1.10,2013-11-04 11:05:00,
2013-11-04 06:20:00,-999.0,-99.9,26.72,North,-999,-999.0,-999.0,-999,0.00,,,0.00,weatherlink.com 1.10,2013-11-04 11:20:00,
2013-11-04 06:35:00,-999.0,-99.9,26.72,North,-999,-999.0,-999.0,-999,0.00,,,0.00,weatherlink.com 1.10,2013-11-04 11:35:00,
2013-11-04 06:50:00,-999.0,-99.9,26.72,North,-999,-999.0,-999.0,-999,0.00,,,0.00,weatherlink.com 1.10,2013-11-04 11:50:00,
2013-11-04 07:05:00,-999.0,-99.9,26.73,North,-999,-999.0,-999.0,-999,0.00,,,0.00,weatherlink.com 1.10,2013-11-04 12:05:00,
2013-11-04 07:20:00,-999.0,-99.9,26.73,North,-999,-999.0,-999.0,-999,0.00,,,0.00,weatherlink.com 1.10,2013-11-04 12:20:00,
2013-11-04 07:35:00,28.8,27.0,26.73,North,355,0.0,0.0,93,0.00,,,0.00,weatherlink.com 1.10,2013-11-04 12:35:00,
2013-11-04 07:50:00,30.6,29.0,26.74,North,355,0.0,2.0,94,0.00,,,0.00,weatherlink.com 1.10,2013-11-04 12:50:00,
2013-11-04 08:05:00,32.9,29.0,26.73,SE,128,3.0,10.0,86,0.00,,,0.00,weatherlink.com 1.10,2013-11-04 13:05:00,
2013-11-04 08:20:00,35.3,27.0,26.74,SSE,148,2.0,6.0,73,0.00,,,0.00,weatherlink.com 1.10,2013-11-04 13:20:00,
2013-11-04 08:35:00,35.9,26.0,26.75,SE,128,1.0,8.0,67,0.00,,,0.00,weatherlink.com 1.10,2013-11-04 13:35:00,
2013-11-04 08:51:00,36.9,26.0,26.74,ESE,103,7.0,7.0,66,0.00,,,0.00,weatherlink.com 1.10,2013-11-04 13:51:00,
2013-11-04 09:06:00,36.9,26.0,26.74,East,88,0.0,12.0,64,0.00,,,0.00,weatherlink.com 1.10,2013-11-04 14:06:00,
2013-11-04 09:21:00,37.0,25.0,26.74,SE,132,3.0,8.0,63,0.00,,,0.00,weatherlink.com 1.10,2013-11-04 14:21:00,
2013-11-04 09:36:00,37.9,25.0,26.75,SSE,148,3.0,11.0,61,0.00,,,0.00,weatherlink.com 1.10,2013-11-04 14:36:00,
2013-11-04 09:51:00,38.5,23.0,26.74,East,100,0.0,11.0,55,0.00,,,0.00,weatherlink.com 1.10,2013-11-04 14:51:00,
2013-11-04 10:06:00,38.9,23.0,26.75,SE,136,3.0,8.0,54,0.00,,,0.00,weatherlink.com 1.10,2013-11-04 15:06:00,
2013-11-04 10:21:00,39.6,23.0,26.75,NNE,19,2.0,7.0,51,0.00,,,0.00,weatherlink.com 1.10,2013-11-04 15:21:00,
2013-11-04 10:36:00,40.5,23.0,26.76,NNE,27,3.0,8.0,50,0.00,,,0.00,weatherlink.com 1.10,2013-11-04 15:36:00,
2013-11-04 10:51:00,40.9,23.0,26.74,SSE,151,5.0,11.0,50,0.00,,,0.00,weatherlink.com 1.10,2013-11-04 15:51:00,
2013-11-04 11:06:00,41.5,24.0,26.73,SSE,167,3.0,9.0,50,0.00,,,0.00,weatherlink.com 1.10,2013-11-04 16:06:00,
2013-11-04 11:21:00,41.3,23.0,26.74,SE,142,1.0,9.0,49,0.00,,,0.00,weatherlink.com 1.10,2013-11-04 16:21:00,
2013-11-04 11:36:00,42.6,22.0,26.74,SSE,149,1.0,7.0,45,0.00,,,0.00,weatherlink.com 1.10,2013-11-04 16:36:00,
2013-11-04 11:51:00,41.5,23.0,26.73,ESE,118,0.0,9.0,48,0.00,,,0.00,weatherlink.com 1.10,2013-11-04 16:51:00,
2013-11-04 12:07:00,42.5,25.0,26.73,SSE,165,1.0,5.0,51,0.00,,,0.00,weatherlink.com 1.10,2013-11-04 17:07:00,
2013-11-04 12:21:00,41.8,23.0,26.73,NNE,24,5.0,11.0,47,0.00,,,0.00,weatherlink.com 1.10,2013-11-04 17:21:00,
2013-11-04 12:36:00,41.8,23.0,26.73,NNE,13,3.0,10.0,48,0.00,,,0.00,weatherlink.com 1.10,2013-11-04 17:36:00,
2013-11-04 12:51:00,43.6,23.0,26.72,NNE,27,1.0,7.0,45,0.00,,,0.00,weatherlink.com 1.10,2013-11-04 17:51:00,
2013-11-04 13:21:00,45.1,25.0,26.71,NNE,22,2.0,7.0,45,0.00,,,0.00,weatherlink.com 1.10,2013-11-04 18:21:00,
2013-11-04 13:36:00,46.4,25.0,26.71,SSE,156,4.0,8.0,44,0.00,,,0.00,weatherlink.com 1.10,2013-11-04 18:36:00,
2013-11-04 13:51:00,46.7,24.0,26.71,NE,44,2.0,8.0,41,0.00,,,0.00,weatherlink.com 1.10,2013-11-04 18:51:00,
2013-11-04 14:06:00,46.2,25.0,26.71,East,90,3.0,7.0,44,0.00,,,0.00,weatherlink.com 1.10,2013-11-04 19:06:00,
2013-11-04 14:21:00,47.0,26.0,26.70,SE,146,4.0,9.0,44,0.00,,,0.00,weatherlink.com 1.10,2013-11-04 19:21:00,
2013-11-04 14:36:00,47.4,26.0,26.70,NE,35,2.0,6.0,43,0.00,,,0.00,weatherlink.com 1.10,2013-11-04 19:36:00,
2013-11-04 14:51:00,46.2,26.0,26.70,SSE,150,2.0,8.0,46,0.00,,,0.00,weatherlink.com 1.10,2013-11-04 19:51:00,
2013-11-04 15:06:00,47.0,26.0,26.71,SSE,156,6.0,7.0,44,0.00,,,0.00,weatherlink.com 1.10,2013-11-04 20:06:00,
2013-11-04 15:21:00,47.0,27.0,26.71,SSE,152,2.0,10.0,46,0.00,,,0.00,weatherlink.com 1.10,2013-11-04 20:21:00,
2013-11-04 15:36:00,47.4,27.0,26.71,SE,132,5.0,6.0,46,0.00,,,0.00,weatherlink.com 1.10,2013-11-04 20:36:00,
2013-11-04 15:51:00,47.0,26.0,26.70,SE,138,1.0,6.0,44,0.00,,,0.00,weatherlink.com 1.10,2013-11-04 20:51:00,
2013-11-04 16:06:00,45.8,27.0,26.70,South,170,2.0,8.0,48,0.00,,,0.00,weatherlink.com 1.10,2013-11-04 21:06:00,
2013-11-04 16:21:00,45.4,26.0,26.70,ESE,112,3.0,9.0,47,0.00,,,0.00,weatherlink.com 1.10,2013-11-04 21:21:00,
2013-11-04 16:36:00,45.1,27.0,26.71,ESE,118,0.0,7.0,50,0.00,,,0.00,weatherlink.com 1.10,2013-11-04 21:36:00,
2013-11-04 16:51:00,45.2,27.0,26.71,SE,142,4.0,6.0,50,0.00,,,0.00,weatherlink.com 1.10,2013-11-04 21:51:00,
2013-11-04 17:06:00,44.1,25.0,26.71,SSE,167,2.0,11.0,48,0.00,,,0.00,weatherlink.com 1.10,2013-11-04 22:06:00,
2013-11-04 17:21:00,43.5,26.0,26.71,South,169,0.0,7.0,51,0.00,,,0.00,weatherlink.com 1.10,2013-11-04 22:21:00,
2013-11-04 17:36:00,-999.0,-99.9,26.72,North,-999,-999.0,-999.0,-999,0.00,,,0.00,weatherlink.com 1.10,2013-11-04 22:36:00,
2013-11-04 17:51:00,-999.0,-99.9,26.71,North,-999,-999.0,-999.0,-999,0.00,,,0.00,weatherlink.com 1.10,2013-11-04 22:51:00,
2013-11-04 18:06:00,-999.0,-99.9,26.71,North,-999,-999.0,-999.0,-999,0.00,,,0.00,weatherlink.com 1.10,2013-11-04 23:06:00,
2013-11-04 18:22:00,-999.0,-99.9,26.72,North,-999,-999.0,-999.0,-999,0.00,,,0.00,weatherlink.com 1.10,2013-11-04 23:22:00,
2013-11-04 18:37:00,-999.0,-99.9,26.72,North,-999,-999.0,-999.0,-999,0.00,,,0.00,weatherlink.com 1.10,2013-11-04 23:37:00,
2013-11-04 18:52:00,-999.0,-99.9,26.72,North,-999,-999.0,-999.0,-999,0.00,,,0.00,weatherlink.com 1.10,2013-11-04 23:52:00,
2013-11-04 19:07:00,-999.0,-99.9,26.72,North,-999,-999.0,-999.0,-999,0.00,,,0.00,weatherlink.com 1.10,2013-11-05 00:07:00,
2013-11-04 19:22:00,-999.0,-99.9,26.73,North,-999,-999.0,-999.0,-999,0.00,,,0.00,weatherlink.com 1.10,2013-11-05 00:22:00,
2013-11-04 19:37:00,-999.0,-99.9,26.73,North,-999,-999.0,-999.0,-999,0.00,,,0.00,weatherlink.com 1.10,2013-11-05 00:37:00,
2013-11-04 19:52:00,-999.0,-99.9,26.73,North,-999,-999.0,-999.0,-999,0.00,,,0.00,weatherlink.com 1.10,2013-11-05 00:52:00,
2013-11-04 20:07:00,-999.0,-99.9,26.73,North,-999,-999.0,-999.0,-999,0.00,,,0.00,weatherlink.com 1.10,2013-11-05 01:07:00,
2013-11-04 20:22:00,-999.0,-99.9,26.73,North,-999,-999.0,-999.0,-999,0.00,,,0.00,weatherlink.com 1.10,2013-11-05 01:22:00,
2013-11-04 20:37:00,-999.0,-99.9,26.73,North,-999,-999.0,-999.0,-999,0.00,,,0.00,weatherlink.com 1.10,2013-11-05 01:37:00,
2013-11-04 20:52:00,-999.0,-99.9,26.74,North,-999,-999.0,-999.0,-999,0.00,,,0.00,weatherlink.com 1.10,2013-11-05 01:52:00,
2013-11-04 21:07:00,-999.0,-99.9,26.74,North,-999,-999.0,-999.0,-999,0.00,,,0.00,weatherlink.com 1.10,2013-11-05 02:07:00,
2013-11-04 21:22:00,-999.0,-99.9,26.74,North,-999,-999.0,-999.0,-999,0.00,,,0.00,weatherlink.com 1.10,2013-11-05 02:22:00,
2013-11-04 21:38:00,-999.0,-99.9,26.74,North,-999,-999.0,-999.0,-999,0.00,,,0.00,weatherlink.com 1.10,2013-11-05 02:38:00,
2013-11-04 21:53:00,-999.0,-99.9,26.75,North,-999,-999.0,-999.0,-999,0.00,,,0.00,weatherlink.com 1.10,2013-11-05 02:53:00,
2013-11-04 22:08:00,-999.0,-99.9,26.74,North,-999,-999.0,-999.0,-999,0.00,,,0.00,weatherlink.com 1.10,2013-11-05 03:08:00,
2013-11-04 22:23:00,-999.0,-99.9,26.75,North,-999,-999.0,-999.0,-999,0.00,,,0.00,weatherlink.com 1.10,2013-11-05 03:23:00,
2013-11-04 22:38:00,-999.0,-99.9,26.75,North,-999,-999.0,-999.0,-999,0.00,,,0.00,weatherlink.com 1.10,2013-11-05 03:38:00,
2013-11-04 22:53:00,-999.0,-99.9,26.74,North,-999,-999.0,-999.0,-999,0.00,,,0.00,weatherlink.com 1.10,2013-11-05 03:53:00,
2013-11-04 23:08:00,-999.0,-99.9,26.73,North,-999,-999.0,-999.0,-999,0.00,,,0.00,weatherlink.com 1.10,2013-11-05 04:08:00,
2013-11-04 23:23:00,-999.0,-99.9,26.75,North,-999,-999.0,-999.0,-999,0.00,,,0.00,weatherlink.com 1.10,2013-11-05 04:23:00,
2013-11-04 23:38:00,-999.0,-99.9,26.74,North,-999,-999.0,-999.0,-999,0.00,,,0.00,weatherlink.com 1.10,2013-11-05 04:38:00,
2013-11-04 23:53:00,-999.0,-99.9,26.75,North,-999,-999.0,-999.0,-999,0.00,,,0.00,weatherlink.com 1.10,2013-11-05 04:53:00,